Time;durP1;ratioP1;P1;durP2;ratioP2;P2;SDS_P1;SDS_P2;PMS_P1;PMS_P2;Temp;Humidity;BMP_temperature;BMP_pressure;BME280_temperature;BME280_humidity;BME280_pressure;Samples;Min_cycle;Max_cycle;Signal;HPM_P1;HPM_P2
2020/12/26 00:00:11;;;;;;;23.00;10.93;;;;;;;;;;673407;207;920094;-65
2020/12/26 00:02:37;;;;;;;19.35;9.45;;;;;;;;;;666168;205;920653;-65
2020/12/26 00:05:03;;;;;;;17.27;6.40;;;;;;;;;;668682;208;922986;-65
2020/12/26 00:07:29;;;;;;;8.93;4.10;;;;;;;;;;666240;207;919061;-65
2020/12/26 00:09:55;;;;;;;5.87;3.50;;;;;;;;;;669601;209;877205;-64
2020/12/26 00:12:21;;;;;;;6.13;4.30;;;;;;;;;;660494;207;1389542;-65
2020/12/26 00:14:47;;;;;;;6.03;4.37;;;;;;;;;;668832;206;1015026;-64
2020/12/26 00:17:12;;;;;;;8.07;4.43;;;;;;;;;;670391;206;917339;-65
2020/12/26 00:19:38;;;;;;;16.33;8.17;;;;;;;;;;667358;207;914772;-65
2020/12/26 00:22:04;;;;;;;17.57;10.27;;;;;;;;;;665058;207;914937;-65
2020/12/26 00:24:30;;;;;;;16.97;7.20;;;;;;;;;;672262;207;915160;-65
2020/12/26 00:26:56;;;;;;;16.97;8.30;;;;;;;;;;666463;208;918229;-64
2020/12/26 00:29:22;;;;;;;8.30;4.30;;;;;;;;;;666421;208;919230;-65
2020/12/26 00:31:47;;;;;;;6.30;3.13;;;;;;;;;;669886;207;918757;-64
2020/12/26 00:34:13;;;;;;;6.35;3.10;;;;;;;;;;666658;205;1021990;-65
2020/12/26 00:36:39;;;;;;;6.23;4.20;;;;;;;;;;668494;208;919391;-64
2020/12/26 00:39:05;;;;;;;15.87;10.17;;;;;;;;;;663123;206;918816;-65
2020/12/26 00:41:31;;;;;;;13.13;7.27;;;;;;;;;;670320;208;919580;-65
2020/12/26 00:43:57;;;;;;;10.87;6.00;;;;;;;;;;666205;207;918964;-64
2020/12/26 00:46:23;;;;;;;11.40;7.33;;;;;;;;;;667071;208;919095;-65
2020/12/26 00:48:48;;;;;;;9.40;6.23;;;;;;;;;;669180;208;919102;-64
2020/12/26 00:51:14;;;;;;;6.33;4.23;;;;;;;;;;669551;206;919258;-65
2020/12/26 00:53:40;;;;;;;6.37;4.30;;;;;;;;;;664579;206;1017547;-64
2020/12/26 00:56:06;;;;;;;6.60;2.77;;;;;;;;;;672091;208;919103;-65
2020/12/26 00:58:32;;;;;;;4.20;2.73;;;;;;;;;;654417;206;2982871;-65
2020/12/26 01:00:58;;;;;;;5.30;3.00;;;;;;;;;;665984;210;919343;-65
2020/12/26 01:03:23;;;;;;;3.17;2.33;;;;;;;;;;661962;206;918655;-64
2020/12/26 01:05:49;;;;;;;4.40;2.93;;;;;;;;;;664815;209;918797;-66
2020/12/26 01:08:15;;;;;;;4.73;2.90;;;;;;;;;;664659;208;920090;-66
2020/12/26 01:10:41;;;;;;;5.73;3.50;;;;;;;;;;666306;205;918920;-64
2020/12/26 01:13:07;;;;;;;8.25;4.78;;;;;;;;;;673693;206;918193;-66
2020/12/26 01:15:33;;;;;;;6.33;4.10;;;;;;;;;;665855;205;918722;-66
2020/12/26 01:17:58;;;;;;;8.70;5.27;;;;;;;;;;667072;206;918717;-66
2020/12/26 01:20:24;;;;;;;4.30;2.90;;;;;;;;;;672799;207;913252;-65
2020/12/26 01:22:50;;;;;;;4.07;3.20;;;;;;;;;;667390;207;915496;-66
2020/12/26 01:25:16;;;;;;;6.77;4.27;;;;;;;;;;665662;206;938296;-65
2020/12/26 01:27:42;;;;;;;7.43;4.27;;;;;;;;;;668900;206;919114;-65
2020/12/26 01:30:08;;;;;;;6.33;4.13;;;;;;;;;;664788;206;1020737;-66
2020/12/26 01:32:34;;;;;;;10.60;5.50;;;;;;;;;;667797;206;919470;-66
2020/12/26 01:34:59;;;;;;;8.10;5.20;;;;;;;;;;669152;205;633037;-65
2020/12/26 01:37:25;;;;;;;8.70;4.10;;;;;;;;;;671905;206;919108;-66
2020/12/26 01:39:51;;;;;;;8.80;5.30;;;;;;;;;;666661;206;918928;-67
2020/12/26 01:42:17;;;;;;;4.70;3.20;;;;;;;;;;667660;206;939584;-66
2020/12/26 01:44:47;;;;;;;5.27;2.93;;;;;;;;;;671142;206;919204;-64
2020/12/26 01:47:13;;;;;;;4.30;3.20;;;;;;;;;;667974;206;928500;-65
2020/12/26 01:49:38;;;;;;;4.30;2.60;;;;;;;;;;670946;206;918782;-66
2020/12/26 01:52:05;;;;;;;4.03;2.75;;;;;;;;;;667767;206;918912;-65
2020/12/26 01:54:31;;;;;;;4.50;3.30;;;;;;;;;;670490;209;628323;-66
2020/12/26 01:56:56;;;;;;;4.90;2.87;;;;;;;;;;667163;208;623685;-66
2020/12/26 01:59:22;;;;;;;3.80;2.00;;;;;;;;;;670893;207;630410;-66
2020/12/26 02:01:48;;;;;;;3.70;2.80;;;;;;;;;;671205;206;920307;-66
2020/12/26 02:04:14;;;;;;;5.12;3.12;;;;;;;;;;667449;206;920314;-65
2020/12/26 02:06:45;;;;;;;5.60;3.00;;;;;;;;;;664201;206;1193380;-65
2020/12/26 02:09:11;;;;;;;7.55;3.25;;;;;;;;;;670664;206;919114;-65
2020/12/26 02:11:37;;;;;;;4.40;2.60;;;;;;;;;;665385;206;919492;-66
2020/12/26 02:14:03;;;;;;;5.43;2.50;;;;;;;;;;667722;206;918864;-65
2020/12/26 02:16:29;;;;;;;9.90;2.77;;;;;;;;;;664411;206;919107;-65
2020/12/26 02:18:55;;;;;;;3.08;2.50;;;;;;;;;;672533;206;919027;-65
2020/12/26 02:21:22;;;;;;;3.77;2.90;;;;;;;;;;665384;205;919609;-65
2020/12/26 02:23:48;;;;;;;6.67;3.37;;;;;;;;;;667630;205;918992;-65
2020/12/26 02:26:14;;;;;;;4.23;2.40;;;;;;;;;;672878;205;918912;-65
2020/12/26 02:28:40;;;;;;;6.67;3.30;;;;;;;;;;643979;207;4942168;-65
2020/12/26 02:31:06;;;;;;;5.30;2.20;;;;;;;;;;665929;206;918486;-66
2020/12/26 02:33:34;;;;;;;3.70;2.00;;;;;;;;;;669091;206;918969;-65
2020/12/26 02:35:58;;;;;;;6.20;3.40;;;;;;;;;;667118;206;922523;-65
2020/12/26 02:38:24;;;;;;;5.07;2.90;;;;;;;;;;665746;206;919215;-66
2020/12/26 02:40:49;;;;;;;5.13;2.93;;;;;;;;;;667279;206;919007;-65
2020/12/26 02:43:18;;;;;;;4.90;3.70;;;;;;;;;;669251;206;919346;-65
2020/12/26 02:45:44;;;;;;;4.73;2.87;;;;;;;;;;667520;206;919686;-65
2020/12/26 02:48:10;;;;;;;5.87;2.00;;;;;;;;;;665795;205;923065;-65
2020/12/26 02:50:36;;;;;;;3.90;2.83;;;;;;;;;;672467;206;918876;-66
2020/12/26 02:53:01;;;;;;;5.60;2.90;;;;;;;;;;664534;206;918045;-66
2020/12/26 02:55:27;;;;;;;5.37;2.90;;;;;;;;;;669636;207;918720;-65
2020/12/26 02:57:53;;;;;;;5.00;3.13;;;;;;;;;;669177;206;920997;-66
2020/12/26 03:00:19;;;;;;;3.50;2.20;;;;;;;;;;666846;206;915584;-66
2020/12/26 03:02:46;;;;;;;4.50;2.70;;;;;;;;;;667688;206;919227;-67
2020/12/26 03:05:12;;;;;;;3.80;2.50;;;;;;;;;;667188;206;918627;-67
2020/12/26 03:07:38;;;;;;;4.93;2.83;;;;;;;;;;671617;206;919178;-65
2020/12/26 03:10:04;;;;;;;3.23;2.50;;;;;;;;;;666045;206;919907;-67
2020/12/26 03:12:30;;;;;;;3.37;2.37;;;;;;;;;;667864;206;920446;-66
2020/12/26 03:14:56;;;;;;;4.00;2.57;;;;;;;;;;665982;206;1918612;-67
2020/12/26 03:17:21;;;;;;;5.20;3.43;;;;;;;;;;667678;206;919032;-66
2020/12/26 03:19:47;;;;;;;4.60;2.60;;;;;;;;;;667091;206;918432;-66
2020/12/26 03:22:13;;;;;;;4.60;3.13;;;;;;;;;;672074;206;919059;-67
2020/12/26 03:24:39;;;;;;;3.87;2.90;;;;;;;;;;665922;206;919066;-67
2020/12/26 03:27:05;;;;;;;4.20;2.43;;;;;;;;;;667639;206;965515;-66
2020/12/26 03:29:31;;;;;;;3.90;2.33;;;;;;;;;;664314;206;918973;-66
2020/12/26 03:31:56;;;;;;;7.17;3.47;;;;;;;;;;667733;209;908513;-67
2020/12/26 03:34:22;;;;;;;5.07;2.73;;;;;;;;;;663230;205;919791;-67
2020/12/26 03:36:48;;;;;;;4.37;3.03;;;;;;;;;;667927;205;918813;-66
2020/12/26 03:39:16;;;;;;;4.50;3.20;;;;;;;;;;669906;206;918842;-65
2020/12/26 03:41:41;;;;;;;4.93;3.40;;;;;;;;;;668919;206;919229;-67
2020/12/26 03:44:07;;;;;;;2.70;2.13;;;;;;;;;;668080;206;918644;-67
2020/12/26 03:46:33;;;;;;;5.10;2.43;;;;;;;;;;670573;206;919056;-67
2020/12/26 03:48:59;;;;;;;5.03;3.33;;;;;;;;;;668543;206;918641;-66
2020/12/26 03:51:25;;;;;;;3.90;2.70;;;;;;;;;;665968;206;918105;-67
2020/12/26 03:53:51;;;;;;;3.50;2.27;;;;;;;;;;663457;207;919078;-66
2020/12/26 03:56:16;;;;;;;3.87;2.77;;;;;;;;;;661588;208;1668780;-69
2020/12/26 03:58:42;;;;;;;3.90;2.73;;;;;;;;;;665835;208;918309;-68
2020/12/26 04:01:08;;;;;;;6.93;2.80;;;;;;;;;;664052;206;921841;-64
2020/12/26 04:03:34;;;;;;;3.57;2.73;;;;;;;;;;670813;206;921366;-68
2020/12/26 04:06:00;;;;;;;4.20;2.77;;;;;;;;;;665245;206;921434;-67
2020/12/26 04:08:26;;;;;;;4.70;3.03;;;;;;;;;;665872;207;1023891;-67
2020/12/26 04:10:51;;;;;;;4.13;2.87;;;;;;;;;;669160;208;942116;-68
2020/12/26 04:13:17;;;;;;;3.37;2.40;;;;;;;;;;668423;208;1021854;-68
2020/12/26 04:15:43;;;;;;;4.45;2.55;;;;;;;;;;667872;206;915036;-67
2020/12/26 04:18:09;;;;;;;4.67;2.53;;;;;;;;;;671527;207;925934;-67
2020/12/26 04:20:35;;;;;;;4.53;2.70;;;;;;;;;;668123;208;918551;-68
2020/12/26 04:23:01;;;;;;;4.10;2.57;;;;;;;;;;666122;207;1099794;-69
2020/12/26 04:25:26;;;;;;;4.70;3.00;;;;;;;;;;666571;206;917960;-68
2020/12/26 04:27:52;;;;;;;5.13;3.00;;;;;;;;;;664316;209;921672;-68
2020/12/26 04:30:18;;;;;;;5.00;2.92;;;;;;;;;;667590;206;912516;-68
2020/12/26 04:32:44;;;;;;;4.63;3.20;;;;;;;;;;662427;206;988714;-68
2020/12/26 04:35:10;;;;;;;5.67;3.23;;;;;;;;;;671628;208;912239;-68
2020/12/26 04:37:36;;;;;;;5.77;3.27;;;;;;;;;;664345;205;912156;-68
2020/12/26 04:40:01;;;;;;;5.97;3.73;;;;;;;;;;667595;206;1011962;-68
2020/12/26 04:42:27;;;;;;;6.77;3.60;;;;;;;;;;669778;206;954225;-68
2020/12/26 04:44:53;;;;;;;6.47;3.03;;;;;;;;;;668121;206;914200;-69
2020/12/26 04:47:21;;;;;;;3.62;2.87;;;;;;;;;;667032;205;914620;-69
2020/12/26 04:49:46;;;;;;;4.93;2.85;;;;;;;;;;669856;206;913938;-69
2020/12/26 04:52:11;;;;;;;5.50;3.47;;;;;;;;;;665564;208;913459;-68
2020/12/26 04:54:38;;;;;;;5.57;2.73;;;;;;;;;;667894;206;910588;-69
2020/12/26 04:57:04;;;;;;;3.30;2.60;;;;;;;;;;667052;206;914278;-70
2020/12/26 04:59:30;;;;;;;4.70;3.30;;;;;;;;;;670297;206;913668;-69
2020/12/26 05:01:56;;;;;;;5.73;3.27;;;;;;;;;;668921;206;919140;-69
2020/12/26 05:04:21;;;;;;;5.15;3.75;;;;;;;;;;666608;204;919268;-69
2020/12/26 05:06:47;;;;;;;6.30;3.30;;;;;;;;;;667649;209;919712;-69
2020/12/26 05:09:13;;;;;;;4.57;3.42;;;;;;;;;;664963;206;930027;-69
2020/12/26 05:11:39;;;;;;;4.30;2.80;;;;;;;;;;666464;206;927309;-68
2020/12/26 05:14:06;;;;;;;5.60;2.97;;;;;;;;;;668372;206;917940;-69
2020/12/26 05:16:31;;;;;;;4.30;2.80;;;;;;;;;;667656;206;919075;-69
2020/12/26 05:18:57;;;;;;;4.90;2.80;;;;;;;;;;667197;206;919306;-69
2020/12/26 05:21:24;;;;;;;4.67;2.70;;;;;;;;;;667616;206;938101;-69
2020/12/26 05:23:49;;;;;;;4.00;2.53;;;;;;;;;;668426;206;1356746;-69
2020/12/26 05:26:15;;;;;;;4.20;3.13;;;;;;;;;;667557;208;923193;-69
2020/12/26 05:28:41;;;;;;;4.70;3.17;;;;;;;;;;665030;206;918981;-70
2020/12/26 05:31:07;;;;;;;3.87;2.60;;;;;;;;;;670279;207;919634;-68
2020/12/26 05:33:35;;;;;;;4.60;3.40;;;;;;;;;;667102;206;917898;-70
2020/12/26 05:36:02;;;;;;;5.83;3.53;;;;;;;;;;668279;206;913796;-69
2020/12/26 05:38:28;;;;;;;3.95;2.87;;;;;;;;;;668209;207;925158;-67
2020/12/26 05:40:54;;;;;;;5.37;2.60;;;;;;;;;;665061;209;919022;-69
2020/12/26 05:43:19;;;;;;;5.43;3.30;;;;;;;;;;664541;208;919338;-70
2020/12/26 05:45:45;;;;;;;5.50;3.37;;;;;;;;;;664532;206;919014;-69
2020/12/26 05:48:11;;;;;;;5.97;4.00;;;;;;;;;;671917;207;923503;-69
2020/12/26 05:50:37;;;;;;;5.57;3.83;;;;;;;;;;664949;206;919140;-69
2020/12/26 05:53:03;;;;;;;7.63;3.70;;;;;;;;;;668173;207;918220;-70
2020/12/26 05:55:35;;;;;;;5.40;4.12;;;;;;;;;;669049;207;918571;-69
2020/12/26 05:58:01;;;;;;;6.43;4.00;;;;;;;;;;669042;208;918432;-70
2020/12/26 06:00:30;;;;;;;6.87;4.30;;;;;;;;;;669496;205;919204;-69
2020/12/26 06:02:56;;;;;;;5.43;3.90;;;;;;;;;;668843;206;919166;-70
2020/12/26 06:05:22;;;;;;;7.80;5.00;;;;;;;;;;670329;206;918769;-68
2020/12/26 06:07:48;;;;;;;6.10;4.70;;;;;;;;;;667880;206;920430;-69
2020/12/26 06:10:14;;;;;;;8.70;5.35;;;;;;;;;;665271;206;918869;-68
2020/12/26 06:12:40;;;;;;;8.10;5.47;;;;;;;;;;671734;208;919191;-69
2020/12/26 06:15:06;;;;;;;10.30;6.00;;;;;;;;;;667285;208;940089;-68
2020/12/26 06:17:32;;;;;;;8.20;5.50;;;;;;;;;;664435;207;917905;-69
2020/12/26 06:19:58;;;;;;;11.17;6.30;;;;;;;;;;669684;206;917719;-69
2020/12/26 06:22:24;;;;;;;11.20;6.60;;;;;;;;;;665454;208;918981;-68
2020/12/26 06:24:49;;;;;;;10.70;7.00;;;;;;;;;;667090;208;1021738;-69
2020/12/26 06:27:15;;;;;;;8.87;5.67;;;;;;;;;;664472;206;919499;-68
2020/12/26 06:29:42;;;;;;;9.63;6.07;;;;;;;;;;673179;206;918493;-71
2020/12/26 06:32:08;;;;;;;8.00;5.73;;;;;;;;;;665843;206;1254163;-71
2020/12/26 06:34:34;;;;;;;9.53;5.63;;;;;;;;;;671718;206;634843;-71
2020/12/26 06:36:59;;;;;;;8.37;6.60;;;;;;;;;;671533;205;641135;-68
2020/12/26 06:39:25;;;;;;;8.00;5.03;;;;;;;;;;670491;206;915947;-69
2020/12/26 06:41:51;;;;;;;9.67;6.10;;;;;;;;;;669300;206;630863;-69
2020/12/26 06:44:17;;;;;;;8.33;5.70;;;;;;;;;;671827;208;619769;-69
2020/12/26 06:46:43;;;;;;;7.30;5.40;;;;;;;;;;665728;206;920421;-68
2020/12/26 06:49:09;;;;;;;8.88;5.93;;;;;;;;;;668305;206;917129;-68
2020/12/26 06:51:42;;;;;;;10.43;5.70;;;;;;;;;;666304;206;915207;-68
2020/12/26 06:54:08;;;;;;;11.57;7.03;;;;;;;;;;673663;206;626812;-68
2020/12/26 06:56:48;;;;;;;8.00;5.87;;;;;;;;;;668923;206;898907;-68
2020/12/26 06:59:15;;;;;;;8.77;5.63;;;;;;;;;;669967;206;716817;-68
2020/12/26 07:01:40;;;;;;;9.60;5.77;;;;;;;;;;671065;206;640975;-68
2020/12/26 07:04:14;;;;;;;11.20;6.73;;;;;;;;;;670937;205;621220;-68
2020/12/26 07:06:40;;;;;;;9.40;5.50;;;;;;;;;;669107;211;918417;-69
2020/12/26 07:09:05;;;;;;;7.77;5.50;;;;;;;;;;662970;207;924249;-71
2020/12/26 07:11:31;;;;;;;8.40;6.13;;;;;;;;;;671823;205;619536;-69
2020/12/26 07:13:57;;;;;;;7.40;5.20;;;;;;;;;;671380;207;624603;-70
2020/12/26 07:16:29;;;;;;;9.47;6.00;;;;;;;;;;671818;206;629962;-69
2020/12/26 07:18:55;;;;;;;8.93;5.93;;;;;;;;;;665436;206;1591430;-70
2020/12/26 07:21:20;;;;;;;11.40;5.37;;;;;;;;;;671769;207;637167;-69
2020/12/26 07:23:48;;;;;;;10.13;6.40;;;;;;;;;;672712;206;640871;-69
2020/12/26 07:26:14;;;;;;;9.80;5.23;;;;;;;;;;672539;207;626674;-69
2020/12/26 07:28:40;;;;;;;8.83;5.73;;;;;;;;;;668962;206;629285;-69
2020/12/26 07:31:12;;;;;;;8.37;6.17;;;;;;;;;;673926;206;651270;-69
2020/12/26 07:33:37;;;;;;;12.50;6.63;;;;;;;;;;667379;209;617555;-69
2020/12/26 07:36:03;;;;;;;7.17;5.37;;;;;;;;;;669665;206;651103;-70
2020/12/26 07:38:29;;;;;;;7.05;5.12;;;;;;;;;;665677;206;1504222;-71
2020/12/26 07:40:55;;;;;;;6.87;4.57;;;;;;;;;;674438;207;620124;-69
2020/12/26 07:43:21;;;;;;;7.07;5.30;;;;;;;;;;672704;206;632030;-70
2020/12/26 07:45:48;;;;;;;9.90;6.40;;;;;;;;;;668118;207;632703;-70
2020/12/26 07:48:13;;;;;;;6.90;5.27;;;;;;;;;;673286;208;630758;-69
2020/12/26 07:50:39;;;;;;;11.90;5.43;;;;;;;;;;667476;207;646156;-69
2020/12/26 07:53:05;;;;;;;7.17;5.30;;;;;;;;;;670419;206;628089;-69
2020/12/26 07:55:30;;;;;;;7.13;4.47;;;;;;;;;;672116;205;627457;-69
2020/12/26 07:58:00;;;;;;;7.10;4.00;;;;;;;;;;671845;206;637148;-69
2020/12/26 08:00:24;;;;;;;11.20;4.73;;;;;;;;;;669585;205;627003;-69
2020/12/26 08:02:51;;;;;;;8.53;6.40;;;;;;;;;;669343;206;623570;-70
2020/12/26 08:05:18;;;;;;;9.40;5.87;;;;;;;;;;672078;207;627661;-69
2020/12/26 08:07:44;;;;;;;13.43;9.10;;;;;;;;;;671662;206;629843;-69
2020/12/26 08:10:10;;;;;;;11.85;7.72;;;;;;;;;;669195;206;620788;-69
2020/12/26 08:12:36;;;;;;;8.33;5.80;;;;;;;;;;673976;205;620008;-69
2020/12/26 08:15:02;;;;;;;11.30;4.50;;;;;;;;;;669820;206;648531;-69
2020/12/26 08:17:28;;;;;;;6.53;4.30;;;;;;;;;;672151;206;635883;-69
2020/12/26 08:19:56;;;;;;;8.43;4.10;;;;;;;;;;670715;206;628182;-69
2020/12/26 08:22:22;;;;;;;7.57;4.57;;;;;;;;;;669662;204;617516;-68
2020/12/26 08:24:48;;;;;;;5.40;4.43;;;;;;;;;;670576;206;624360;-69
2020/12/26 08:27:13;;;;;;;6.27;4.50;;;;;;;;;;669813;206;690304;-68
2020/12/26 08:29:39;;;;;;;7.37;4.23;;;;;;;;;;673355;206;629958;-68
2020/12/26 08:32:05;;;;;;;7.50;4.30;;;;;;;;;;670615;206;633413;-68
2020/12/26 08:34:46;;;;;;;11.43;4.50;;;;;;;;;;671176;206;664175;-68
2020/12/26 08:37:12;;;;;;;9.80;5.40;;;;;;;;;;668515;206;623273;-66
2020/12/26 08:39:37;;;;;;;6.23;3.83;;;;;;;;;;674764;206;638933;-68
2020/12/26 08:42:03;;;;;;;9.43;5.10;;;;;;;;;;670126;206;617133;-67
2020/12/26 08:44:29;;;;;;;8.80;4.90;;;;;;;;;;671840;206;636747;-67
2020/12/26 08:46:55;;;;;;;7.33;4.63;;;;;;;;;;672162;205;654072;-67
2020/12/26 08:49:21;;;;;;;7.00;5.70;;;;;;;;;;671376;206;629791;-66
2020/12/26 08:51:47;;;;;;;5.80;4.70;;;;;;;;;;669519;206;633887;-69
2020/12/26 08:54:16;;;;;;;7.03;4.80;;;;;;;;;;670301;207;632816;-66
2020/12/26 08:56:42;;;;;;;8.50;5.60;;;;;;;;;;672440;208;625191;-66
2020/12/26 08:59:08;;;;;;;8.10;5.93;;;;;;;;;;670435;206;629515;-65
2020/12/26 09:01:35;;;;;;;8.23;6.13;;;;;;;;;;671028;206;648104;-64
2020/12/26 09:04:01;;;;;;;9.17;6.27;;;;;;;;;;672528;207;622259;-65
2020/12/26 09:06:29;;;;;;;10.20;6.40;;;;;;;;;;672016;206;624580;-65
2020/12/26 09:08:55;;;;;;;10.90;6.10;;;;;;;;;;666056;206;1332106;-66
2020/12/26 09:11:21;;;;;;;9.60;6.30;;;;;;;;;;667749;206;637770;-65
2020/12/26 09:13:47;;;;;;;16.60;8.50;;;;;;;;;;672302;206;635871;-66
2020/12/26 09:16:14;;;;;;;10.77;6.10;;;;;;;;;;672088;207;630386;-65
2020/12/26 09:18:45;;;;;;;8.07;6.77;;;;;;;;;;667954;206;623949;-65
2020/12/26 09:21:25;;;;;;;9.60;6.03;;;;;;;;;;674698;206;617578;-65
2020/12/26 09:23:51;;;;;;;8.83;6.53;;;;;;;;;;667875;210;621787;-64
2020/12/26 09:26:17;;;;;;;6.70;5.00;;;;;;;;;;670889;206;625495;-63
2020/12/26 09:28:47;;;;;;;7.50;5.33;;;;;;;;;;669835;206;642834;-64
2020/12/26 09:31:13;;;;;;;8.47;5.53;;;;;;;;;;671055;206;632488;-63
2020/12/26 09:33:39;;;;;;;6.67;4.43;;;;;;;;;;674364;205;630267;-65
2020/12/26 09:36:04;;;;;;;8.27;5.63;;;;;;;;;;669223;207;668604;-64
2020/12/26 09:38:30;;;;;;;8.83;5.70;;;;;;;;;;669238;207;628633;-65
2020/12/26 09:40:56;;;;;;;9.17;4.83;;;;;;;;;;672385;208;620088;-65
2020/12/26 09:43:22;;;;;;;8.93;5.10;;;;;;;;;;669433;207;621497;-66
2020/12/26 09:45:48;;;;;;;6.23;4.90;;;;;;;;;;671895;208;643736;-65
2020/12/26 09:48:14;;;;;;;6.37;4.80;;;;;;;;;;674821;206;628215;-65
2020/12/26 09:50:39;;;;;;;9.03;5.73;;;;;;;;;;669585;206;639402;-65
2020/12/26 09:53:05;;;;;;;8.87;6.17;;;;;;;;;;672462;206;638182;-67
2020/12/26 09:55:31;;;;;;;7.27;5.00;;;;;;;;;;668827;206;771465;-64
2020/12/26 09:57:57;;;;;;;11.60;8.43;;;;;;;;;;674573;206;628166;-65
2020/12/26 10:00:23;;;;;;;9.40;6.20;;;;;;;;;;669876;206;625823;-64
2020/12/26 10:02:49;;;;;;;9.43;4.70;;;;;;;;;;671519;206;629503;-65
2020/12/26 10:05:18;;;;;;;6.00;3.90;;;;;;;;;;672652;206;617278;-65
2020/12/26 10:07:40;;;;;;;7.13;4.83;;;;;;;;;;671610;206;626803;-64
2020/12/26 10:10:06;;;;;;;10.80;6.60;;;;;;;;;;668520;206;637387;-65
2020/12/26 10:12:32;;;;;;;11.20;6.63;;;;;;;;;;672659;207;630963;-67
2020/12/26 10:14:58;;;;;;;7.60;5.57;;;;;;;;;;673326;203;631444;-65
2020/12/26 10:17:24;;;;;;;19.37;13.00;;;;;;;;;;665759;208;642908;-65
2020/12/26 10:19:49;;;;;;;9.43;5.57;;;;;;;;;;667245;206;639066;-65
2020/12/26 10:22:15;;;;;;;8.13;4.20;;;;;;;;;;669847;209;639537;-66
2020/12/26 10:24:41;;;;;;;6.50;4.80;;;;;;;;;;671523;206;634931;-64
2020/12/26 10:27:07;;;;;;;9.83;4.77;;;;;;;;;;667433;208;621464;-64
2020/12/26 10:29:33;;;;;;;9.87;5.10;;;;;;;;;;673729;207;634362;-64
2020/12/26 10:31:59;;;;;;;9.27;6.47;;;;;;;;;;669490;206;621093;-65
2020/12/26 10:34:25;;;;;;;8.03;5.37;;;;;;;;;;670770;206;624705;-65
2020/12/26 10:36:50;;;;;;;21.63;15.80;;;;;;;;;;671515;207;636457;-65
2020/12/26 10:39:16;;;;;;;15.43;6.83;;;;;;;;;;671771;206;625445;-64
2020/12/26 10:41:43;;;;;;;17.33;15.70;;;;;;;;;;667598;206;660037;-64
2020/12/26 10:44:09;;;;;;;7.57;5.35;;;;;;;;;;674563;206;629740;-64
2020/12/26 10:46:35;;;;;;;10.93;5.37;;;;;;;;;;669343;208;627874;-65
2020/12/26 10:49:01;;;;;;;9.85;5.00;;;;;;;;;;672776;208;678784;-65
2020/12/26 10:51:27;;;;;;;11.37;4.70;;;;;;;;;;669682;206;626837;-65
2020/12/26 10:53:53;;;;;;;5.90;4.30;;;;;;;;;;674855;206;626122;-65
2020/12/26 10:56:19;;;;;;;5.77;4.40;;;;;;;;;;670801;205;627907;-64
2020/12/26 10:58:44;;;;;;;6.93;4.80;;;;;;;;;;670254;206;627093;-65
2020/12/26 11:01:10;;;;;;;7.20;4.73;;;;;;;;;;674524;206;620309;-66
2020/12/26 11:03:37;;;;;;;9.77;5.83;;;;;;;;;;666573;207;732066;-64
2020/12/26 11:06:03;;;;;;;7.75;6.28;;;;;;;;;;668916;207;641836;-65
2020/12/26 11:08:28;;;;;;;7.87;4.70;;;;;;;;;;668342;206;910040;-65
2020/12/26 11:10:54;;;;;;;10.83;5.03;;;;;;;;;;670310;206;917059;-64
2020/12/26 11:13:20;;;;;;;10.87;4.63;;;;;;;;;;669919;206;636777;-64
2020/12/26 11:15:46;;;;;;;13.10;8.30;;;;;;;;;;671174;206;624542;-65
2020/12/26 11:18:12;;;;;;;7.43;5.13;;;;;;;;;;668511;209;633204;-65
2020/12/26 11:20:38;;;;;;;8.27;5.10;;;;;;;;;;669354;206;627804;-65
2020/12/26 11:23:03;;;;;;;5.93;4.43;;;;;;;;;;669038;205;636199;-64
2020/12/26 11:25:29;;;;;;;7.90;5.70;;;;;;;;;;674224;206;623023;-65
2020/12/26 11:27:55;;;;;;;8.17;4.37;;;;;;;;;;667774;206;720800;-65
2020/12/26 11:30:21;;;;;;;10.20;4.87;;;;;;;;;;672052;206;618642;-65
2020/12/26 11:32:47;;;;;;;7.07;5.60;;;;;;;;;;671489;207;622540;-66
2020/12/26 11:35:13;;;;;;;8.43;4.40;;;;;;;;;;672211;208;622955;-64
2020/12/26 11:37:40;;;;;;;7.63;4.50;;;;;;;;;;671241;206;624125;-64
2020/12/26 11:40:06;;;;;;;5.87;3.93;;;;;;;;;;670387;206;619068;-65
2020/12/26 11:42:32;;;;;;;6.80;6.10;;;;;;;;;;668769;209;646263;-65
2020/12/26 11:44:57;;;;;;;7.27;5.33;;;;;;;;;;667037;208;734343;-66
2020/12/26 11:47:23;;;;;;;5.83;4.30;;;;;;;;;;670086;206;639322;-64
2020/12/26 11:49:49;;;;;;;14.50;5.47;;;;;;;;;;671448;206;679680;-67
2020/12/26 11:52:15;;;;;;;6.17;4.83;;;;;;;;;;671122;208;630212;-65
2020/12/26 11:54:41;;;;;;;10.03;4.97;;;;;;;;;;668372;206;626006;-64
2020/12/26 11:57:07;;;;;;;8.97;5.10;;;;;;;;;;676204;208;622345;-65
2020/12/26 11:59:32;;;;;;;8.20;5.73;;;;;;;;;;670964;206;623838;-65
2020/12/26 12:01:58;;;;;;;8.93;5.97;;;;;;;;;;672619;208;623607;-66
2020/12/26 12:04:25;;;;;;;9.90;6.17;;;;;;;;;;672292;206;629336;-65
2020/12/26 12:06:50;;;;;;;6.70;5.40;;;;;;;;;;671062;207;630933;-65
2020/12/26 12:09:16;;;;;;;6.43;4.60;;;;;;;;;;672701;205;624451;-66
2020/12/26 12:11:42;;;;;;;7.70;4.97;;;;;;;;;;668353;209;683953;-65
2020/12/26 12:14:08;;;;;;;7.40;4.60;;;;;;;;;;671263;207;619620;-68
2020/12/26 12:16:33;;;;;;;6.53;4.70;;;;;;;;;;669463;206;639277;-65
2020/12/26 12:18:59;;;;;;;7.60;6.40;;;;;;;;;;672032;207;619892;-65
2020/12/26 12:21:25;;;;;;;5.77;3.60;;;;;;;;;;671663;207;625284;-65
2020/12/26 12:23:51;;;;;;;8.37;3.90;;;;;;;;;;671794;206;632632;-65
2020/12/26 12:26:20;;;;;;;8.17;4.73;;;;;;;;;;668829;207;643901;-64
2020/12/26 12:28:46;;;;;;;7.05;4.37;;;;;;;;;;673175;208;627783;-64
2020/12/26 12:31:12;;;;;;;6.50;4.87;;;;;;;;;;666323;209;624068;-66
2020/12/26 12:33:37;;;;;;;10.57;5.07;;;;;;;;;;668107;210;624521;-65
2020/12/26 12:36:03;;;;;;;7.50;5.73;;;;;;;;;;668182;206;658977;-64
2020/12/26 12:38:30;;;;;;;6.80;5.30;;;;;;;;;;674267;208;634330;-64
2020/12/26 12:40:55;;;;;;;8.90;5.30;;;;;;;;;;668298;206;630777;-65
2020/12/26 12:43:21;;;;;;;9.03;5.30;;;;;;;;;;670261;206;623724;-65
2020/12/26 12:45:47;;;;;;;5.43;4.80;;;;;;;;;;671241;206;630715;-65
2020/12/26 12:48:13;;;;;;;9.30;5.00;;;;;;;;;;671531;206;634417;-66
2020/12/26 12:50:39;;;;;;;6.32;4.82;;;;;;;;;;658401;205;3053081;-65
2020/12/26 12:53:04;;;;;;;12.27;6.17;;;;;;;;;;674159;206;630284;-65
2020/12/26 12:55:30;;;;;;;8.30;4.53;;;;;;;;;;671563;206;626884;-65
2020/12/26 12:57:56;;;;;;;7.93;6.37;;;;;;;;;;668129;206;635455;-65
2020/12/26 13:00:22;;;;;;;22.40;12.53;;;;;;;;;;670944;206;659749;-66
2020/12/26 13:02:48;;;;;;;29.10;13.40;;;;;;;;;;672543;208;621472;-66
2020/12/26 13:05:14;;;;;;;9.50;6.63;;;;;;;;;;672285;206;625583;-66
2020/12/26 13:07:39;;;;;;;17.63;8.90;;;;;;;;;;671466;205;614253;-65
2020/12/26 13:10:05;;;;;;;12.53;6.43;;;;;;;;;;676149;207;617733;-65
2020/12/26 13:12:31;;;;;;;4.50;3.30;;;;;;;;;;670365;206;636701;-66
2020/12/26 13:14:57;;;;;;;5.83;3.20;;;;;;;;;;672359;206;622271;-65
2020/12/26 13:17:23;;;;;;;6.23;4.20;;;;;;;;;;672257;206;680756;-66
2020/12/26 13:19:49;;;;;;;10.13;7.10;;;;;;;;;;672431;207;628813;-66
2020/12/26 13:22:14;;;;;;;6.23;3.47;;;;;;;;;;668092;208;641571;-67
2020/12/26 13:24:40;;;;;;;5.90;4.20;;;;;;;;;;671060;206;624238;-65
2020/12/26 13:27:06;;;;;;;5.90;3.67;;;;;;;;;;669765;209;627103;-66
2020/12/26 13:29:32;;;;;;;7.20;3.10;;;;;;;;;;668940;206;627354;-66
2020/12/26 13:31:58;;;;;;;8.50;3.30;;;;;;;;;;670397;208;632953;-66
2020/12/26 13:34:24;;;;;;;4.80;3.23;;;;;;;;;;671247;206;625136;-66
2020/12/26 13:36:49;;;;;;;9.40;4.83;;;;;;;;;;671936;206;630619;-65
2020/12/26 13:39:15;;;;;;;7.60;4.20;;;;;;;;;;666271;206;1308267;-66
2020/12/26 13:41:41;;;;;;;11.40;4.73;;;;;;;;;;672345;207;628503;-64
2020/12/26 13:44:07;;;;;;;7.30;3.80;;;;;;;;;;668256;207;637161;-64
2020/12/26 13:46:33;;;;;;;8.30;3.60;;;;;;;;;;670119;206;642226;-66
2020/12/26 13:48:59;;;;;;;5.30;2.53;;;;;;;;;;671438;207;631478;-66
2020/12/26 13:51:27;;;;;;;6.83;2.50;;;;;;;;;;672180;208;626999;-65
2020/12/26 13:53:50;;;;;;;3.80;2.77;;;;;;;;;;668302;207;642561;-65
2020/12/26 13:56:16;;;;;;;4.40;3.20;;;;;;;;;;670918;206;630869;-65
2020/12/26 13:58:42;;;;;;;5.07;2.57;;;;;;;;;;671420;206;630425;-65
2020/12/26 14:01:08;;;;;;;5.05;3.10;;;;;;;;;;668465;209;636396;-65
2020/12/26 14:03:34;;;;;;;7.03;2.83;;;;;;;;;;666430;206;630075;-65
2020/12/26 14:05:59;;;;;;;9.23;3.20;;;;;;;;;;673200;208;697629;-65
2020/12/26 14:08:26;;;;;;;4.20;2.80;;;;;;;;;;669587;207;637613;-64
2020/12/26 14:10:52;;;;;;;6.33;2.60;;;;;;;;;;668768;206;713536;-65
2020/12/26 14:13:18;;;;;;;6.20;2.30;;;;;;;;;;673319;205;631928;-65
2020/12/26 14:15:44;;;;;;;3.23;2.23;;;;;;;;;;668416;207;624950;-65
2020/12/26 14:18:10;;;;;;;4.23;2.03;;;;;;;;;;671446;206;639285;-66